createdAt,value
2023-03-23T00:00:03.747Z,70.75
2023-03-23T00:02:37.910Z,70.80
2023-03-23T00:05:09.737Z,71.05
2023-03-23T00:07:38.264Z,72.59
2023-03-23T00:10:06.553Z,71.75
2023-03-23T00:12:37.316Z,71.87
2023-03-23T00:15:07.858Z,72.68
2023-03-23T00:17:36.667Z,73.72
2023-03-23T00:20:07.546Z,74.07
2023-03-23T00:22:39.851Z,74.37
2023-03-23T00:25:10.589Z,74.17
2023-03-23T00:27:38.566Z,74.36
2023-03-23T00:30:07.803Z,74.84
2023-03-23T00:32:35.618Z,74.54
2023-03-23T00:35:03.757Z,74.64
2023-03-23T00:37:31.649Z,74.79
2023-03-23T00:39:59.725Z,74.79
2023-03-23T00:42:28.384Z,74.79
2023-03-23T00:45:02.411Z,74.84
2023-03-23T00:47:30.732Z,74.96
2023-03-23T00:49:59.209Z,74.94
2023-03-23T00:52:27.895Z,75.02
2023-03-23T00:54:56.191Z,75.19
2023-03-23T00:57:26.469Z,75.14
2023-03-23T00:59:54.373Z,75.21
2023-03-23T01:02:33.594Z,75.33
2023-03-23T01:05:01.436Z,75.24
2023-03-23T01:07:30.533Z,75.30
2023-03-23T01:09:59.832Z,75.32
2023-03-23T01:12:28.477Z,75.21
2023-03-23T01:14:56.921Z,75.21
2023-03-23T01:17:25.111Z,75.11
2023-03-23T01:19:53.111Z,75.27
2023-03-23T01:22:21.067Z,75.19
2023-03-23T01:24:48.974Z,75.31
2023-03-23T01:27:16.907Z,75.39
2023-03-23T01:29:44.864Z,75.23
2023-03-23T01:32:12.728Z,75.24
2023-03-23T01:34:40.619Z,75.20
2023-03-23T01:37:10.881Z,74.97
2023-03-23T01:39:39.730Z,74.84
2023-03-23T01:42:07.851Z,74.79
2023-03-23T01:44:35.696Z,74.68
2023-03-23T01:47:03.945Z,74.68
2023-03-23T01:49:46.552Z,74.66
2023-03-23T01:52:26.068Z,74.77
2023-03-23T01:54:57.712Z,74.45
2023-03-23T01:57:29.148Z,74.26
2023-03-23T02:00:00.511Z,74.12
2023-03-23T02:02:29.740Z,74.01
2023-03-23T02:05:04.078Z,73.90
2023-03-23T02:07:33.879Z,73.90
2023-03-23T02:10:02.829Z,73.86
2023-03-23T02:12:30.804Z,73.91
2023-03-23T02:14:59.208Z,73.84
2023-03-23T02:17:44.230Z,73.82
2023-03-23T02:20:21.110Z,73.90
2023-03-23T02:23:21.952Z,73.73
2023-03-23T02:25:58.806Z,73.79
2023-03-23T02:28:44.534Z,73.59
2023-03-23T02:31:26.510Z,73.51
2023-03-23T02:34:04.020Z,73.57
2023-03-23T02:36:41.524Z,73.34
2023-03-23T02:39:20.318Z,73.21
2023-03-23T02:41:55.839Z,73.21
2023-03-23T02:44:27.651Z,73.16
2023-03-23T02:46:56.836Z,72.96
2023-03-23T02:49:27.609Z,72.97
2023-03-23T02:51:58.774Z,72.98
2023-03-23T02:54:28.484Z,72.98
2023-03-23T02:56:58.162Z,73.01
2023-03-23T02:59:26.088Z,73.23
2023-03-23T03:02:00.651Z,73.76
2023-03-23T03:04:30.952Z,74.16
2023-03-23T03:07:32.533Z,74.52
2023-03-23T03:10:25.115Z,74.36
2023-03-23T03:12:57.484Z,74.91
2023-03-23T03:15:43.648Z,74.46
2023-03-23T03:18:17.108Z,74.57
2023-03-23T03:20:51.372Z,74.54
2023-03-23T03:23:22.259Z,74.78
2023-03-23T03:25:51.187Z,74.70
2023-03-23T03:28:23.728Z,74.84
2023-03-23T03:30:58.590Z,74.87
2023-03-23T03:33:29.931Z,74.99
2023-03-23T03:36:00.468Z,74.91
2023-03-23T03:38:29.336Z,75.09
2023-03-23T03:40:59.486Z,75.09
2023-03-23T03:43:28.020Z,75.49
2023-03-23T03:45:55.844Z,75.41
2023-03-23T03:48:23.748Z,75.57
2023-03-23T03:50:54.442Z,75.68
2023-03-23T03:53:22.568Z,76.10
2023-03-23T03:56:02.309Z,76.18
2023-03-23T03:58:33.774Z,76.83
2023-03-23T04:01:02.076Z,77.07
2023-03-23T04:03:30.164Z,77.49
2023-03-23T04:05:58.637Z,77.93
2023-03-23T04:08:29.111Z,78.69
2023-03-23T04:10:57.289Z,79.07
2023-03-23T04:13:25.722Z,79.66
2023-03-23T04:16:07.299Z,79.76
2023-03-23T04:18:38.869Z,80.16
2023-03-23T04:21:10.394Z,80.33
2023-03-23T04:23:38.840Z,80.96
2023-03-23T04:26:06.734Z,81.03
2023-03-23T04:28:36.023Z,81.23
2023-03-23T04:31:06.211Z,81.60
2023-03-23T04:33:59.868Z,81.37
2023-03-23T04:36:24.565Z,81.32
2023-03-23T04:39:13.461Z,81.38
2023-03-23T04:41:42.359Z,81.30
2023-03-23T04:44:10.569Z,81.40
2023-03-23T04:46:38.964Z,82.28
2023-03-23T04:49:06.900Z,81.45
2023-03-23T04:51:34.795Z,81.47
2023-03-23T04:54:02.985Z,81.26
2023-03-23T04:56:30.888Z,81.20
2023-03-23T04:58:58.911Z,81.10
2023-03-23T05:01:29.963Z,80.91
2023-03-23T05:03:57.967Z,80.97
2023-03-23T05:06:25.901Z,80.63
2023-03-23T05:08:53.816Z,80.35
2023-03-23T05:11:21.895Z,80.17
2023-03-23T05:13:49.810Z,80.01
2023-03-23T05:16:17.806Z,80.05
2023-03-23T05:18:46.199Z,80.05
2023-03-23T05:21:14.162Z,80.20
2023-03-23T05:23:42.396Z,80.28
2023-03-23T05:26:10.366Z,80.23
2023-03-23T05:28:38.753Z,80.25
2023-03-23T05:31:07.161Z,80.26
2023-03-23T05:33:35.074Z,80.22
2023-03-23T05:36:03.096Z,80.37
2023-03-23T05:38:31.542Z,80.32
2023-03-23T05:41:03.452Z,80.42
2023-03-23T05:43:31.445Z,80.30
2023-03-23T05:45:59.364Z,80.26
2023-03-23T05:48:27.372Z,80.54
2023-03-23T05:50:55.271Z,80.46
2023-03-23T05:53:23.206Z,80.17
2023-03-23T05:55:51.342Z,80.24
2023-03-23T05:58:19.321Z,80.24
2023-03-23T06:00:48.993Z,80.12
2023-03-23T06:03:17.928Z,80.04
2023-03-23T06:05:47.403Z,79.92
2023-03-23T06:08:15.639Z,79.92
2023-03-23T06:10:43.532Z,79.84
2023-03-23T06:13:11.592Z,79.90
2023-03-23T06:15:40.037Z,79.83
2023-03-23T06:18:09.357Z,79.81
2023-03-23T06:20:38.236Z,79.79
2023-03-23T06:23:12.380Z,79.75
2023-03-23T06:25:42.053Z,79.61
2023-03-23T06:28:11.747Z,79.50
2023-03-23T06:30:39.871Z,79.40
2023-03-23T06:33:11.853Z,79.32
2023-03-23T06:35:40.120Z,79.39
2023-03-23T06:38:08.230Z,79.35
2023-03-23T06:40:36.092Z,79.23
2023-03-23T06:43:06.044Z,79.15
2023-03-23T06:45:33.976Z,79.01
2023-03-23T06:48:02.102Z,78.83
2023-03-23T06:50:30.645Z,78.66
2023-03-23T06:52:58.523Z,78.49
2023-03-23T06:55:27.210Z,78.29
2023-03-23T06:57:55.178Z,78.20
2023-03-23T07:00:23.112Z,77.94
2023-03-23T07:02:51.473Z,77.76
2023-03-23T07:05:19.494Z,77.50
2023-03-23T07:07:47.560Z,77.25
2023-03-23T07:10:15.607Z,76.91
2023-03-23T07:12:44.326Z,76.49
2023-03-23T07:15:13.255Z,76.60
2023-03-23T07:17:42.790Z,76.51
2023-03-23T07:20:11.289Z,76.38
2023-03-23T07:22:39.245Z,75.61
2023-03-23T07:25:07.450Z,75.71
2023-03-23T07:27:36.030Z,74.36
2023-03-23T07:30:03.989Z,73.11
2023-03-23T07:32:32.129Z,71.50
2023-03-23T07:35:00.110Z,71.63
2023-03-23T07:37:28.022Z,70.63
2023-03-23T07:39:55.868Z,70.14
2023-03-23T07:42:23.746Z,69.30
2023-03-23T07:44:51.759Z,68.56
2023-03-23T07:47:20.230Z,67.55
2023-03-23T07:50:02.582Z,64.60
2023-03-23T07:52:30.501Z,64.80
2023-03-23T07:54:58.513Z,64.68
2023-03-23T07:57:26.433Z,64.61
2023-03-23T07:59:54.295Z,64.06
2023-03-23T08:02:22.169Z,62.71
2023-03-23T08:04:50.101Z,62.46
2023-03-23T08:07:19.916Z,62.11
2023-03-23T08:09:51.068Z,62.07
2023-03-23T08:12:19.368Z,62.27
2023-03-23T08:14:47.289Z,62.03
2023-03-23T08:17:15.121Z,61.09
2023-03-23T08:19:43.077Z,61.31
2023-03-23T08:22:11.958Z,61.28
2023-03-23T08:24:40.137Z,60.88
2023-03-23T08:27:09.267Z,59.66
2023-03-23T08:29:37.512Z,56.91
2023-03-23T08:32:05.612Z,58.29
2023-03-23T08:34:33.555Z,56.56
2023-03-23T08:37:01.539Z,57.01
2023-03-23T08:39:30.305Z,56.72
2023-03-23T08:41:58.401Z,56.12
2023-03-23T08:44:26.537Z,55.53
2023-03-23T08:46:59.011Z,55.60
2023-03-23T08:49:27.907Z,54.87
2023-03-23T08:51:55.867Z,54.68
2023-03-23T08:54:23.734Z,51.93
2023-03-23T08:56:51.612Z,52.53
2023-03-23T08:59:19.594Z,51.89
2023-03-23T09:01:47.985Z,50.91
2023-03-23T09:04:17.806Z,51.47
2023-03-23T09:06:46.768Z,50.45
2023-03-23T09:09:15.077Z,50.85
2023-03-23T09:11:42.993Z,50.63
2023-03-23T09:14:10.972Z,49.92
2023-03-23T09:16:38.883Z,48.51
2023-03-23T09:19:06.866Z,50.25
2023-03-23T09:21:34.708Z,50.36
2023-03-23T09:24:03.992Z,49.80
2023-03-23T09:26:33.596Z,50.06
2023-03-23T09:29:01.604Z,50.10
2023-03-23T09:31:29.897Z,48.46
2023-03-23T09:34:01.349Z,49.47
2023-03-23T09:36:31.691Z,50.20
2023-03-23T09:39:00.696Z,50.92
2023-03-23T09:41:58.277Z,51.22
2023-03-23T09:44:50.120Z,51.40
2023-03-23T09:47:34.425Z,51.45
2023-03-23T09:50:07.650Z,51.20
2023-03-23T09:52:47.446Z,51.63
2023-03-23T09:55:18.480Z,51.53
2023-03-23T09:58:02.052Z,51.70
2023-03-23T10:00:37.860Z,51.63
2023-03-23T10:03:21.055Z,51.94
2023-03-23T10:05:49.625Z,51.61
2023-03-23T10:08:25.211Z,51.75
2023-03-23T10:11:20.657Z,51.75
2023-03-23T10:14:12.495Z,51.53
2023-03-23T10:16:45.148Z,51.85
2023-03-23T10:19:17.725Z,51.89
2023-03-23T10:22:00.665Z,51.74
2023-03-23T10:24:37.879Z,51.17
2023-03-23T10:27:26.575Z,51.36
2023-03-23T10:30:17.585Z,51.14
2023-03-23T10:32:58.975Z,50.73
2023-03-23T10:35:32.641Z,50.96
2023-03-23T10:38:13.145Z,49.35
2023-03-23T10:40:55.398Z,47.41
2023-03-23T10:43:23.823Z,47.32
2023-03-23T10:46:00.915Z,46.76
2023-03-23T10:48:35.556Z,45.88
2023-03-23T10:51:07.493Z,45.80
2023-03-23T10:53:40.506Z,44.40
2023-03-23T10:56:24.810Z,45.22
2023-03-23T10:58:53.899Z,45.06
2023-03-23T11:01:35.060Z,45.28
2023-03-23T11:04:04.049Z,45.19
2023-03-23T11:06:36.056Z,45.17
2023-03-23T11:09:21.356Z,45.14
2023-03-23T11:12:01.907Z,44.69
2023-03-23T11:14:41.238Z,44.45
2023-03-23T11:17:27.714Z,43.82
2023-03-23T11:19:58.994Z,44.76
2023-03-23T11:22:35.455Z,45.43
2023-03-23T11:25:06.973Z,45.46
2023-03-23T11:27:36.239Z,44.98
2023-03-23T11:30:13.003Z,45.06
2023-03-23T11:32:46.738Z,45.44
2023-03-23T11:35:22.114Z,45.51
2023-03-23T11:37:56.106Z,46.16
2023-03-23T11:40:30.273Z,46.60
2023-03-23T11:43:01.753Z,46.87
2023-03-23T11:45:43.500Z,46.37
2023-03-23T11:48:40.374Z,47.17
2023-03-23T11:51:13.792Z,47.19
2023-03-23T11:54:12.818Z,46.93
2023-03-23T11:56:44.133Z,46.23
2023-03-23T11:59:31.785Z,46.06
2023-03-23T12:02:16.881Z,45.53
2023-03-23T12:05:12.859Z,46.32
2023-03-23T12:07:57.003Z,45.01
2023-03-23T12:10:40.526Z,45.27
2023-03-23T12:13:38.634Z,44.06
2023-03-23T12:16:46.112Z,44.35
2023-03-23T12:19:13.877Z,44.66
2023-03-23T12:21:51.003Z,44.80
2023-03-23T12:24:36.990Z,43.71
2023-03-23T12:27:21.585Z,43.07
2023-03-23T12:30:25.478Z,43.57
2023-03-23T12:33:16.394Z,42.88
2023-03-23T12:36:10.297Z,43.51
2023-03-23T12:39:01.082Z,43.85
2023-03-23T12:41:52.442Z,43.67
2023-03-23T12:44:28.376Z,43.50
2023-03-23T12:47:09.418Z,42.91
2023-03-23T12:49:43.740Z,43.42
2023-03-23T12:52:24.631Z,43.37
2023-03-23T12:55:09.862Z,42.89
2023-03-23T12:58:02.454Z,42.67
2023-03-23T13:00:48.880Z,43.09
2023-03-23T13:03:41.043Z,42.93
2023-03-23T13:06:22.297Z,42.50
2023-03-23T13:09:15.403Z,43.20
2023-03-23T13:11:48.947Z,43.79
2023-03-23T13:14:34.378Z,44.10
2023-03-23T13:17:36.636Z,43.79
2023-03-23T13:20:21.219Z,43.83
2023-03-23T13:23:24.556Z,44.00
2023-03-23T13:26:05.825Z,43.59
2023-03-23T13:28:50.575Z,43.90
2023-03-23T13:31:26.660Z,44.22
2023-03-23T13:34:00.193Z,44.48
2023-03-23T13:37:00.596Z,44.73
2023-03-23T13:39:52.315Z,44.79
2023-03-23T13:42:26.113Z,45.57
2023-03-23T13:44:54.206Z,46.41
2023-03-23T13:47:30.859Z,47.31
2023-03-23T13:50:00.256Z,48.45
2023-03-23T13:52:46.528Z,47.88
2023-03-23T13:55:17.499Z,48.20
2023-03-23T13:58:04.392Z,49.12
2023-03-23T14:00:32.323Z,48.74
2023-03-23T14:03:12.308Z,49.23
2023-03-23T14:05:47.673Z,49.92
2023-03-23T14:08:24.440Z,50.84
2023-03-23T14:10:52.281Z,51.26
2023-03-23T14:13:25.845Z,51.77
2023-03-23T14:16:05.629Z,52.08
2023-03-23T14:18:42.124Z,52.29
2023-03-23T14:21:34.645Z,52.30
2023-03-23T14:24:27.083Z,52.63
2023-03-23T14:27:04.100Z,52.46
2023-03-23T14:29:32.191Z,52.21
2023-03-23T14:32:01.429Z,52.25
2023-03-23T14:34:33.810Z,51.70
2023-03-23T14:37:03.150Z,51.44
2023-03-23T14:39:36.222Z,51.20
2023-03-23T14:42:07.692Z,51.15
2023-03-23T14:44:37.758Z,51.19
2023-03-23T14:47:14.582Z,51.15
2023-03-23T14:49:44.936Z,50.96
2023-03-23T14:52:20.437Z,50.45
2023-03-23T14:54:48.762Z,50.20
2023-03-23T14:57:20.138Z,50.21
2023-03-23T14:59:50.133Z,50.22
2023-03-23T15:02:38.335Z,50.12
2023-03-23T15:05:20.041Z,49.95
2023-03-23T15:07:52.895Z,49.87
2023-03-23T15:10:23.393Z,49.70
2023-03-23T15:12:54.356Z,49.45
2023-03-23T15:15:27.451Z,49.37
2023-03-23T15:17:55.719Z,49.35
2023-03-23T15:20:26.670Z,49.39
2023-03-23T15:22:55.381Z,49.47
2023-03-23T15:25:30.920Z,49.36
2023-03-23T15:28:16.622Z,49.29
2023-03-23T15:30:57.193Z,49.12
2023-03-23T15:33:42.298Z,49.32
2023-03-23T15:36:18.096Z,48.61
2023-03-23T15:38:49.883Z,48.25
2023-03-23T15:41:27.278Z,48.27
2023-03-23T15:44:00.968Z,48.32
2023-03-23T15:46:30.753Z,48.45
2023-03-23T15:48:58.617Z,47.79
2023-03-23T15:51:29.604Z,47.70
2023-03-23T15:54:02.882Z,47.70
2023-03-23T15:56:33.639Z,47.58
2023-03-23T15:59:02.651Z,47.53
2023-03-23T16:01:32.811Z,47.85
2023-03-23T16:04:22.656Z,48.03
2023-03-23T16:06:58.835Z,47.85
2023-03-23T16:09:27.583Z,48.03
2023-03-23T16:11:55.605Z,48.20
2023-03-23T16:14:23.635Z,48.21
2023-03-23T16:16:54.302Z,48.32
2023-03-23T16:19:25.868Z,48.07
2023-03-23T16:21:53.815Z,48.28
2023-03-23T16:24:22.117Z,48.24
2023-03-23T16:26:50.230Z,48.41
2023-03-23T16:29:34.342Z,48.35
2023-03-23T16:32:07.838Z,48.39
2023-03-23T16:34:36.991Z,48.46
2023-03-23T16:37:05.053Z,48.45
2023-03-23T16:39:32.939Z,48.21
2023-03-23T16:42:00.916Z,48.23
2023-03-23T16:44:28.921Z,48.46
2023-03-23T16:46:57.131Z,48.57
2023-03-23T16:49:24.982Z,48.86
2023-03-23T16:51:52.900Z,49.14
2023-03-23T16:54:20.872Z,49.50
2023-03-23T16:56:50.339Z,49.73
2023-03-23T16:59:18.250Z,49.71
2023-03-23T17:01:46.214Z,49.76
2023-03-23T17:04:14.188Z,49.74
2023-03-23T17:06:42.380Z,49.76
2023-03-23T17:09:11.200Z,49.72
2023-03-23T17:11:39.161Z,49.69
2023-03-23T17:14:07.211Z,50.33
2023-03-23T17:16:35.404Z,50.79
2023-03-23T17:19:03.443Z,51.15
2023-03-23T17:21:31.362Z,51.41
2023-03-23T17:23:59.296Z,51.38
2023-03-23T17:26:27.429Z,51.47
2023-03-23T17:28:55.437Z,52.00
2023-03-23T17:31:23.540Z,52.51
2023-03-23T17:33:52.964Z,52.61
2023-03-23T17:36:21.223Z,53.19
2023-03-23T17:38:49.271Z,53.28
2023-03-23T17:41:17.775Z,53.31
2023-03-23T17:43:45.816Z,53.52
2023-03-23T17:46:13.781Z,53.82
2023-03-23T17:48:41.963Z,53.76
2023-03-23T17:51:09.835Z,53.50
2023-03-23T17:53:38.380Z,53.54
2023-03-23T17:56:07.751Z,53.58
2023-03-23T17:58:36.843Z,53.81
2023-03-23T18:01:05.842Z,53.71
2023-03-23T18:03:34.075Z,53.55
2023-03-23T18:06:04.795Z,53.68
2023-03-23T18:08:33.347Z,54.16
2023-03-23T18:11:01.779Z,54.64
2023-03-23T18:13:33.912Z,54.76
2023-03-23T18:16:02.889Z,54.60
2023-03-23T18:18:31.552Z,54.95
2023-03-23T18:21:09.050Z,55.34
2023-03-23T18:23:45.872Z,55.81
2023-03-23T18:26:17.913Z,56.19
2023-03-23T18:28:45.900Z,56.42
2023-03-23T18:31:16.594Z,56.56
2023-03-23T18:33:48.037Z,57.01
2023-03-23T18:36:18.539Z,57.17
2023-03-23T18:38:47.750Z,57.07
2023-03-23T18:41:16.785Z,56.81
2023-03-23T18:43:45.416Z,57.15
2023-03-23T18:46:13.527Z,57.77
2023-03-23T18:48:41.477Z,58.21
2023-03-23T18:51:10.505Z,57.99
2023-03-23T18:53:38.552Z,57.91
2023-03-23T18:56:12.361Z,58.04
2023-03-23T18:58:40.620Z,58.28
2023-03-23T19:01:11.845Z,58.34
2023-03-23T19:03:41.562Z,58.56
2023-03-23T19:06:20.107Z,58.60
2023-03-23T19:08:49.354Z,58.89
2023-03-23T19:11:18.374Z,58.83
2023-03-23T19:13:57.922Z,58.95
2023-03-23T19:16:29.575Z,59.02
2023-03-23T19:18:57.629Z,59.07
2023-03-23T19:21:26.375Z,59.39
2023-03-23T19:23:56.822Z,59.34
2023-03-23T19:26:29.168Z,59.28
2023-03-23T19:31:30.132Z,59.54
2023-03-23T19:33:58.233Z,59.71
2023-03-23T19:36:26.873Z,60.07
2023-03-23T19:39:02.896Z,60.39
2023-03-23T19:41:31.185Z,60.60
2023-03-23T19:43:59.742Z,60.36
2023-03-23T19:46:30.271Z,60.36
2023-03-23T19:48:59.402Z,60.45
2023-03-23T19:51:28.704Z,60.65
2023-03-23T19:53:58.294Z,60.89
2023-03-23T19:56:29.481Z,61.13
2023-03-23T19:58:58.310Z,61.63
2023-03-23T20:01:26.398Z,62.02
2023-03-23T20:03:57.206Z,62.23
2023-03-23T20:06:29.327Z,62.57
2023-03-23T20:09:00.048Z,62.73
2023-03-23T20:11:29.571Z,62.89
2023-03-23T20:13:58.078Z,63.22
2023-03-23T20:16:26.811Z,63.49
2023-03-23T20:18:55.570Z,63.78
2023-03-23T20:21:26.003Z,63.80
2023-03-23T20:23:56.516Z,64.02
2023-03-23T20:26:31.291Z,64.44
2023-03-23T20:28:59.748Z,64.58
2023-03-23T20:31:31.723Z,64.61
2023-03-23T20:34:04.997Z,65.10
2023-03-23T20:36:41.484Z,65.23
2023-03-23T20:39:16.330Z,65.52
2023-03-23T20:41:44.941Z,66.34
2023-03-23T20:44:17.155Z,66.51
2023-03-23T20:46:47.122Z,67.28
2023-03-23T20:49:17.133Z,67.79
2023-03-23T20:51:46.172Z,67.66
2023-03-23T20:54:17.066Z,67.93
2023-03-23T20:56:46.114Z,68.03
2023-03-23T20:59:15.299Z,68.01
2023-03-23T21:01:44.112Z,68.12
2023-03-23T21:04:16.505Z,68.41
2023-03-23T21:06:45.693Z,68.66
2023-03-23T21:09:15.372Z,68.65
2023-03-23T21:11:44.649Z,68.66
2023-03-23T21:14:12.873Z,68.82
2023-03-23T21:16:42.038Z,68.88
2023-03-23T21:19:10.978Z,68.99
2023-03-23T21:21:55.392Z,69.30
2023-03-23T21:24:27.798Z,69.57
2023-03-23T21:26:58.562Z,69.60
2023-03-23T21:29:26.712Z,69.68
2023-03-23T21:32:05.318Z,69.67
2023-03-23T21:34:36.105Z,69.86
2023-03-23T21:37:04.036Z,70.18
2023-03-23T21:39:32.242Z,70.21
2023-03-23T21:42:00.964Z,70.35
2023-03-23T21:44:28.821Z,70.52
2023-03-23T21:46:56.737Z,70.69
2023-03-23T21:49:24.756Z,70.83
2023-03-23T21:51:52.723Z,71.18
2023-03-23T21:54:22.581Z,71.54
2023-03-23T21:56:50.695Z,71.64
2023-03-23T21:59:18.989Z,71.88
2023-03-23T22:01:46.893Z,72.18
2023-03-23T22:04:15.158Z,72.43
2023-03-23T22:06:43.739Z,72.66
2023-03-23T22:09:12.192Z,72.87
2023-03-23T22:11:40.579Z,73.00
2023-03-23T22:14:08.832Z,73.17
2023-03-23T22:16:37.233Z,73.28
2023-03-23T22:19:05.857Z,73.40
2023-03-23T22:21:34.001Z,73.84
2023-03-23T22:24:02.464Z,73.93
2023-03-23T22:26:31.662Z,74.23
2023-03-23T22:29:01.883Z,74.38
2023-03-23T22:31:34.080Z,74.61
2023-03-23T22:34:02.894Z,74.88
2023-03-23T22:36:31.954Z,75.03
2023-03-23T22:39:00.565Z,75.16
2023-03-23T22:41:39.312Z,75.30
2023-03-23T22:44:12.944Z,75.57
2023-03-23T22:46:41.519Z,75.58
2023-03-23T22:49:09.744Z,75.59
2023-03-23T22:51:39.052Z,75.67
2023-03-23T22:54:07.493Z,75.79
2023-03-23T22:56:35.832Z,75.89
2023-03-23T22:59:04.059Z,76.01
2023-03-23T23:01:32.401Z,76.08
2023-03-23T23:04:00.601Z,76.17
2023-03-23T23:06:28.992Z,76.37
2023-03-23T23:08:56.940Z,76.38
2023-03-23T23:11:26.922Z,76.64
2023-03-23T23:13:55.115Z,77.72
2023-03-23T23:16:23.956Z,77.67
2023-03-23T23:18:52.013Z,77.28
2023-03-23T23:21:22.583Z,77.11
2023-03-23T23:23:52.418Z,77.18
2023-03-23T23:26:20.770Z,77.99
2023-03-23T23:28:49.731Z,77.99
2023-03-23T23:31:30.433Z,78.11
2023-03-23T23:34:00.681Z,78.17
2023-03-23T23:36:31.135Z,79.24
2023-03-23T23:39:01.824Z,79.63
2023-03-23T23:41:31.495Z,79.11
2023-03-23T23:44:00.197Z,79.36
2023-03-23T23:46:29.166Z,79.85
2023-03-23T23:48:57.736Z,80.89
2023-03-23T23:51:28.700Z,80.62
2023-03-23T23:53:59.823Z,80.16
2023-03-23T23:56:28.100Z,80.79
2023-03-23T23:58:56.232Z,81.06
